createdAt,value
2022-12-03T00:00:20.794Z,97061.44
2022-12-03T00:01:22.646Z,97061.94
2022-12-03T00:02:25.398Z,97058.13
2022-12-03T00:03:27.817Z,97063.75
2022-12-03T00:04:29.809Z,97064.59
2022-12-03T00:05:31.717Z,97070.03
2022-12-03T00:06:34.821Z,97064.69
2022-12-03T00:07:37.071Z,97063.56
2022-12-03T00:08:38.918Z,97060.69
2022-12-03T00:09:40.793Z,97058.91
2022-12-03T00:10:42.677Z,97064.88
2022-12-03T00:11:44.540Z,97060.69
2022-12-03T00:12:47.286Z,97056.34
2022-12-03T00:13:49.124Z,97059.06
2022-12-03T00:14:52.321Z,97060.03
2022-12-03T00:15:54.223Z,97051.19
2022-12-03T00:16:56.089Z,97044.91
2022-12-03T00:17:57.912Z,97049.78
2022-12-03T00:18:59.801Z,97057.03
2022-12-03T00:20:02.133Z,97047.47
2022-12-03T00:21:03.993Z,97046.47
2022-12-03T00:22:05.826Z,97044.19
2022-12-03T00:23:07.614Z,97049.03
2022-12-03T00:24:09.661Z,97040.22
2022-12-03T00:25:11.505Z,97043.72
2022-12-03T00:26:13.442Z,97042.00
2022-12-03T00:27:15.255Z,97045.00
2022-12-03T00:28:17.120Z,97040.66
2022-12-03T00:29:18.997Z,97037.13
2022-12-03T00:30:20.826Z,97046.16
2022-12-03T00:31:23.860Z,97046.16
2022-12-03T00:32:25.881Z,97038.72
2022-12-03T00:33:27.745Z,97047.72
2022-12-03T00:34:29.616Z,97043.84
2022-12-03T00:35:31.435Z,97042.22
2022-12-03T00:36:33.272Z,97045.75
2022-12-03T00:37:35.743Z,97039.78
2022-12-03T00:38:37.611Z,97040.59
2022-12-03T00:39:39.481Z,97044.44
2022-12-03T00:40:41.575Z,97044.94
2022-12-03T00:41:43.407Z,97038.03
2022-12-03T00:42:45.256Z,97045.75
2022-12-03T00:43:47.071Z,97040.31
2022-12-03T00:44:50.435Z,97040.59
2022-12-03T00:45:52.726Z,97043.19
2022-12-03T00:46:54.616Z,97054.75
2022-12-03T00:47:56.515Z,97053.94
2022-12-03T00:48:58.367Z,97048.00
2022-12-03T00:50:00.220Z,97045.75
2022-12-03T00:51:02.132Z,97047.38
2022-12-03T00:52:04.151Z,97055.78
2022-12-03T00:53:05.969Z,97055.91
2022-12-03T00:54:07.818Z,97055.78
2022-12-03T00:55:09.909Z,97052.84
2022-12-03T00:56:11.822Z,97054.75
2022-12-03T00:57:13.731Z,97053.94
2022-12-03T00:58:15.539Z,97045.03
2022-12-03T00:59:17.378Z,97044.56
2022-12-03T01:00:19.431Z,97047.94
2022-12-03T01:01:21.309Z,97043.72
2022-12-03T01:02:24.074Z,97044.69
2022-12-03T01:03:26.179Z,97046.31
2022-12-03T01:04:28.069Z,97050.19
2022-12-03T01:05:29.909Z,97049.09
2022-12-03T01:06:31.796Z,97045.56
2022-12-03T01:07:33.646Z,97047.19
2022-12-03T01:08:35.542Z,97046.69
2022-12-03T01:09:37.499Z,97046.16
2022-12-03T01:10:39.420Z,97041.97
2022-12-03T01:11:41.693Z,97047.44
2022-12-03T01:12:43.518Z,97042.41
2022-12-03T01:13:45.419Z,97034.84
2022-12-03T01:14:47.328Z,97040.81
2022-12-03T01:15:49.395Z,97046.91
2022-12-03T01:16:51.367Z,97044.34
2022-12-03T01:17:54.554Z,97032.72
2022-12-03T01:18:56.414Z,97037.84
2022-12-03T01:19:59.336Z,97031.91
2022-12-03T01:21:01.196Z,97030.44
2022-12-03T01:22:03.329Z,97036.84
2022-12-03T01:23:05.259Z,97036.03
2022-12-03T01:24:07.179Z,97032.38
2022-12-03T01:25:09.191Z,97026.56
2022-12-03T01:26:11.071Z,97033.63
2022-12-03T01:27:12.959Z,97034.41
2022-12-03T01:28:14.767Z,97028.47
2022-12-03T01:29:16.661Z,97024.56
2022-12-03T01:30:18.480Z,97024.25
2022-12-03T01:31:40.487Z,97036.03
2022-12-03T01:32:42.426Z,97029.94
2022-12-03T01:33:44.287Z,97032.03
2022-12-03T01:34:47.027Z,97040.28
2022-12-03T01:35:48.900Z,97037.25
2022-12-03T01:36:52.851Z,97036.97
2022-12-03T01:37:54.694Z,97041.00
2022-12-03T01:38:56.544Z,97046.69
2022-12-03T01:39:58.382Z,97038.94
2022-12-03T01:41:00.197Z,97040.22
2022-12-03T01:42:02.675Z,97045.66
2022-12-03T01:43:04.516Z,97044.84
2022-12-03T01:44:13.044Z,97040.22
2022-12-03T01:45:22.199Z,97045.22
2022-12-03T01:46:25.464Z,97044.38
2022-12-03T01:47:32.072Z,97043.59
2022-12-03T01:48:35.981Z,97041.66
2022-12-03T01:49:46.081Z,97039.75
2022-12-03T01:50:47.945Z,97035.72
2022-12-03T01:51:52.197Z,97040.06
2022-12-03T01:52:55.908Z,97031.34
2022-12-03T01:53:58.886Z,97036.00
2022-12-03T01:55:02.614Z,97033.41
2022-12-03T01:56:04.558Z,97031.81
2022-12-03T01:57:15.128Z,97025.84
2022-12-03T01:58:17.451Z,97030.84
2022-12-03T01:59:20.998Z,97034.72
2022-12-03T02:00:24.543Z,97030.69
2022-12-03T02:01:26.523Z,97030.19
2022-12-03T02:02:31.939Z,97026.44
2022-12-03T02:03:33.871Z,97026.75
2022-12-03T02:04:36.002Z,97029.28
2022-12-03T02:05:38.525Z,97031.47
2022-12-03T02:06:41.414Z,97034.72
2022-12-03T02:07:43.271Z,97034.09
2022-12-03T02:08:45.665Z,97028.66
2022-12-03T02:09:47.544Z,97026.22
2022-12-03T02:10:49.385Z,97023.50
2022-12-03T02:11:51.289Z,97019.91
2022-12-03T02:13:13.359Z,97023.97
2022-12-03T02:14:18.169Z,97021.69
2022-12-03T02:15:20.062Z,97019.75
2022-12-03T02:16:22.207Z,97018.97
2022-12-03T02:17:24.169Z,97017.84
2022-12-03T02:18:26.094Z,97023.50
2022-12-03T02:19:30.101Z,97025.78
2022-12-03T02:20:38.285Z,97020.47
2022-12-03T02:21:51.524Z,97016.97
2022-12-03T02:22:59.235Z,97025.19
2022-12-03T02:24:16.289Z,97023.44
2022-12-03T02:25:32.567Z,97028.06
2022-12-03T02:26:34.439Z,97032.56
2022-12-03T02:27:36.336Z,97026.91
2022-12-03T02:28:39.042Z,97022.41
2022-12-03T02:29:40.958Z,97026.75
2022-12-03T02:30:42.852Z,97027.22
2022-12-03T02:31:45.048Z,97022.06
2022-12-03T02:32:47.532Z,97019.31
2022-12-03T02:33:49.444Z,97016.44
2022-12-03T02:34:52.489Z,97025.63
2022-12-03T02:35:56.949Z,97019.81
2022-12-03T02:37:02.992Z,97032.03
2022-12-03T02:38:14.007Z,97027.03
2022-12-03T02:39:15.861Z,97023.00
2022-12-03T02:40:23.399Z,97028.16
2022-12-03T02:41:43.698Z,97025.28
2022-12-03T02:42:46.863Z,97029.31
2022-12-03T02:43:48.741Z,97023.19
2022-12-03T02:44:50.715Z,97034.47
2022-12-03T02:45:55.525Z,97024.97
2022-12-03T02:46:58.593Z,97025.63
2022-12-03T02:48:12.356Z,97026.44
2022-12-03T02:49:14.376Z,97021.28
2022-12-03T02:50:20.002Z,97024.03
2022-12-03T02:51:21.873Z,97022.41
2022-12-03T02:52:23.911Z,97024.03
2022-12-03T02:53:28.545Z,97025.13
2022-12-03T02:54:30.434Z,97021.09
2022-12-03T02:55:36.876Z,97024.63
2022-12-03T02:56:39.329Z,97018.97
2022-12-03T02:57:41.723Z,97013.94
2022-12-03T02:58:45.066Z,97017.34
2022-12-03T02:59:47.128Z,97022.66
2022-12-03T03:00:49.743Z,97020.09
2022-12-03T03:01:51.731Z,97009.59
2022-12-03T03:02:53.736Z,97012.03
2022-12-03T03:03:56.099Z,97015.28
2022-12-03T03:04:58.314Z,97023.13
2022-12-03T03:06:02.463Z,97016.66
2022-12-03T03:07:04.493Z,97016.00
2022-12-03T03:08:08.692Z,97010.72
2022-12-03T03:09:10.675Z,97019.25
2022-12-03T03:10:14.878Z,97017.50
2022-12-03T03:11:16.747Z,97023.91
2022-12-03T03:12:18.635Z,97019.72
2022-12-03T03:13:21.229Z,97027.88
2022-12-03T03:14:23.169Z,97019.19
2022-12-03T03:15:25.673Z,97005.22
2022-12-03T03:16:27.598Z,97014.41
2022-12-03T03:17:29.726Z,97011.69
2022-12-03T03:18:32.533Z,97010.72
2022-12-03T03:19:34.496Z,97015.22
2022-12-03T03:20:37.374Z,97018.44
2022-12-03T03:21:39.235Z,97015.72
2022-12-03T03:22:41.930Z,97018.16
2022-12-03T03:23:43.822Z,97012.19
2022-12-03T03:24:47.590Z,97006.22
2022-12-03T03:25:56.619Z,97014.28
2022-12-03T03:26:58.484Z,97014.41
2022-12-03T03:28:00.321Z,97011.19
2022-12-03T03:29:03.376Z,97010.38
2022-12-03T03:30:06.198Z,97010.53
2022-12-03T03:31:09.765Z,97017.72
2022-12-03T03:32:11.717Z,97022.88
2022-12-03T03:33:14.008Z,97022.88
2022-12-03T03:34:16.586Z,97021.94
2022-12-03T03:35:18.759Z,97016.13
2022-12-03T03:36:20.633Z,97015.00
2022-12-03T03:37:22.783Z,97024.19
2022-12-03T03:38:24.707Z,97018.91
2022-12-03T03:39:26.680Z,97021.63
2022-12-03T03:40:28.765Z,97022.59
2022-12-03T03:41:30.802Z,97016.94
2022-12-03T03:42:32.715Z,97014.94
2022-12-03T03:43:35.295Z,97017.94
2022-12-03T03:44:37.256Z,97015.38
2022-12-03T03:45:40.058Z,97019.31
2022-12-03T03:46:42.976Z,97018.31
2022-12-03T03:47:45.011Z,97019.78
2022-12-03T03:48:48.683Z,97019.78
2022-12-03T03:49:51.175Z,97021.56
2022-12-03T03:50:53.617Z,97015.16
2022-12-03T03:51:56.012Z,97019.19
2022-12-03T03:52:58.833Z,97023.53
2022-12-03T03:54:01.630Z,97020.16
2022-12-03T03:55:05.621Z,97016.63
2022-12-03T03:56:07.982Z,97014.88
2022-12-03T03:57:09.873Z,97020.69
2022-12-03T03:58:11.875Z,97017.00
2022-12-03T03:59:14.046Z,97027.16
2022-12-03T04:00:16.051Z,97025.38
2022-12-03T04:01:18.715Z,97026.31
2022-12-03T04:02:21.633Z,97023.59
2022-12-03T04:03:23.522Z,97022.00
2022-12-03T04:04:27.020Z,97019.41
2022-12-03T04:05:29.219Z,97021.03
2022-12-03T04:06:31.170Z,97020.88
2022-12-03T04:07:33.111Z,97017.50
2022-12-03T04:08:35.000Z,97020.09
2022-12-03T04:09:36.805Z,97017.50
2022-12-03T04:10:57.007Z,97018.44
2022-12-03T04:12:17.145Z,97011.97
2022-12-03T04:13:18.962Z,97013.09
2022-12-03T04:14:20.850Z,97015.53
2022-12-03T04:15:23.041Z,97015.53
2022-12-03T04:16:24.959Z,97010.97
2022-12-03T04:17:27.643Z,97009.66
2022-12-03T04:18:44.646Z,97009.13
2022-12-03T04:19:46.537Z,97010.59
2022-12-03T04:20:48.365Z,97016.41
2022-12-03T04:22:08.765Z,97016.41
2022-12-03T04:23:10.693Z,97011.72
2022-12-03T04:24:12.656Z,97015.75
2022-12-03T04:25:32.900Z,97015.88
2022-12-03T04:26:53.685Z,97013.63
2022-12-03T04:28:14.339Z,97010.22
2022-12-03T04:29:16.269Z,97008.31
2022-12-03T04:30:18.155Z,97011.34
2022-12-03T04:31:38.591Z,97004.34
2022-12-03T04:32:58.667Z,97006.56
2022-12-03T04:34:19.679Z,97005.47
2022-12-03T04:35:39.738Z,97004.50
2022-12-03T04:36:41.587Z,97013.84
2022-12-03T04:37:43.379Z,97012.25
2022-12-03T04:38:45.230Z,97005.59
2022-12-03T04:39:47.134Z,97006.56
2022-12-03T04:41:01.186Z,97005.31
2022-12-03T04:42:03.871Z,97007.59
2022-12-03T04:43:06.244Z,97002.94
2022-12-03T04:45:20.699Z,97005.72
2022-12-03T04:46:22.718Z,97008.09
2022-12-03T04:47:24.628Z,97005.38
2022-12-03T04:48:26.499Z,97004.06
2022-12-03T04:49:28.377Z,97001.78
2022-12-03T04:50:30.725Z,97006.13
2022-12-03T04:51:32.514Z,97000.16
2022-12-03T04:52:34.513Z,97000.81
2022-12-03T04:53:36.487Z,97003.91
2022-12-03T04:54:39.267Z,97008.63
2022-12-03T04:55:41.662Z,97005.06
2022-12-03T04:56:43.653Z,97007.38
2022-12-03T04:57:45.551Z,97001.09
2022-12-03T04:58:47.409Z,97007.22
2022-12-03T04:59:49.289Z,97005.06
2022-12-03T05:00:52.580Z,97005.53
2022-12-03T05:01:54.549Z,97004.06
2022-12-03T05:02:57.662Z,97004.34
2022-12-03T05:03:59.721Z,97004.34
2022-12-03T05:05:01.603Z,97004.66
2022-12-03T05:06:03.460Z,97004.66
2022-12-03T05:07:05.391Z,97010.47
2022-12-03T05:08:07.325Z,97007.59
2022-12-03T05:09:09.214Z,97002.75
2022-12-03T05:10:11.736Z,97009.34
2022-12-03T05:11:13.787Z,97005.97
2022-12-03T05:12:15.574Z,97002.75
2022-12-03T05:13:17.453Z,97004.78
2022-12-03T05:14:19.332Z,97006.25
2022-12-03T05:15:21.216Z,97001.78
2022-12-03T05:16:23.749Z,97012.38
2022-12-03T05:17:25.661Z,97007.09
2022-12-03T05:18:27.511Z,97003.41
2022-12-03T05:19:48.041Z,97008.91
2022-12-03T05:20:53.446Z,97009.56
2022-12-03T05:21:55.631Z,97013.38
2022-12-03T05:22:57.646Z,97008.91
2022-12-03T05:23:59.459Z,97007.97
2022-12-03T05:25:01.412Z,97015.81
2022-12-03T05:26:03.297Z,97013.25
2022-12-03T05:27:05.166Z,97006.50
2022-12-03T05:28:07.657Z,97015.47
2022-12-03T05:29:09.539Z,97018.06
2022-12-03T05:30:11.563Z,97014.66
2022-12-03T05:31:13.500Z,97012.06
2022-12-03T05:32:15.618Z,97009.22
2022-12-03T05:33:17.634Z,97006.31
2022-12-03T05:34:19.512Z,97008.25
2022-12-03T05:35:21.339Z,97003.09
2022-12-03T05:36:23.288Z,97005.38
2022-12-03T05:37:26.720Z,97006.69
2022-12-03T05:38:28.576Z,97002.06
2022-12-03T05:39:30.381Z,97007.22
2022-12-03T05:40:32.275Z,97001.28
2022-12-03T05:41:52.742Z,97003.47
2022-12-03T05:42:54.584Z,97007.66
2022-12-03T05:43:56.552Z,97006.56
2022-12-03T05:44:58.401Z,97003.66
2022-12-03T05:46:00.316Z,97000.28
2022-12-03T05:47:02.214Z,97006.09
2022-12-03T05:48:05.112Z,97001.94
2022-12-03T05:49:07.009Z,97007.00
2022-12-03T05:50:08.951Z,97003.41
2022-12-03T05:51:10.756Z,97005.00
2022-12-03T05:52:12.531Z,96998.25
2022-12-03T05:53:15.145Z,96992.13
2022-12-03T05:54:17.792Z,97000.38
2022-12-03T05:55:20.487Z,96997.50
2022-12-03T05:56:22.317Z,97004.28
2022-12-03T05:57:24.145Z,97006.69
2022-12-03T05:58:25.980Z,97000.22
2022-12-03T05:59:28.759Z,96999.13
2022-12-03T06:00:32.011Z,97002.97
2022-12-03T06:01:34.711Z,96997.81
2022-12-03T06:02:36.755Z,96993.97
2022-12-03T06:03:38.827Z,96995.97
2022-12-03T06:04:41.023Z,97001.09
2022-12-03T06:05:42.874Z,97001.63
2022-12-03T06:06:44.774Z,97002.16
2022-12-03T06:07:47.153Z,97005.38
2022-12-03T06:08:49.068Z,97008.63
2022-12-03T06:09:50.921Z,96999.91
2022-12-03T06:10:52.786Z,97001.84
2022-12-03T06:11:54.642Z,97009.06
2022-12-03T06:12:56.551Z,97006.19
2022-12-03T06:13:58.437Z,97003.16
2022-12-03T06:15:00.360Z,96999.63
2022-12-03T06:16:02.287Z,97002.22
2022-12-03T06:17:05.309Z,97001.28
2022-12-03T06:18:07.196Z,97005.06
2022-12-03T06:19:09.018Z,97004.28
2022-12-03T06:20:13.911Z,97001.19
2022-12-03T06:21:15.760Z,97003.59
2022-12-03T06:22:17.648Z,97003.16
2022-12-03T06:23:19.529Z,97006.41
2022-12-03T06:24:21.365Z,96996.25
2022-12-03T06:25:23.335Z,97002.22
2022-12-03T06:26:25.180Z,96998.97
2022-12-03T06:27:27.045Z,97001.56
2022-12-03T06:28:28.878Z,97000.56
2022-12-03T06:29:30.795Z,97006.41
2022-12-03T06:30:34.520Z,97000.16
2022-12-03T06:31:36.428Z,97001.28
2022-12-03T06:32:38.426Z,96998.84
2022-12-03T06:33:40.271Z,97001.94
2022-12-03T06:34:42.016Z,97007.75
2022-12-03T06:35:43.890Z,97006.09
2022-12-03T06:36:47.107Z,96999.63
2022-12-03T06:37:48.977Z,96998.69
2022-12-03T06:38:50.840Z,96996.25
2022-12-03T06:39:52.785Z,96998.31
2022-12-03T06:40:54.723Z,97001.03
2022-12-03T06:41:56.553Z,97002.94
2022-12-03T06:42:58.382Z,96998.31
2022-12-03T06:44:00.696Z,96998.00
2022-12-03T06:45:04.018Z,96988.81
2022-12-03T06:46:06.310Z,96993.97
2022-12-03T06:47:08.214Z,96997.34
2022-12-03T06:48:10.098Z,96987.56
2022-12-03T06:49:11.937Z,96990.97
2022-12-03T06:50:14.440Z,96994.47
2022-12-03T06:51:16.315Z,96988.00
2022-12-03T06:52:18.830Z,96989.47
2022-12-03T06:53:20.665Z,97000.56
2022-12-03T06:54:22.552Z,96990.66
2022-12-03T06:55:24.659Z,96994.84
2022-12-03T06:56:31.163Z,96999.03
2022-12-03T06:57:37.155Z,96995.50
2022-12-03T06:58:38.907Z,96997.78
2022-12-03T06:59:40.783Z,97000.06
2022-12-03T07:00:42.662Z,96999.25
2022-12-03T07:01:44.887Z,97001.00
2022-12-03T07:02:46.869Z,96991.44
2022-12-03T07:03:48.718Z,96992.06
2022-12-03T07:04:50.559Z,97001.41
2022-12-03T07:05:52.437Z,96996.41
2022-12-03T07:06:55.874Z,96996.41
2022-12-03T07:07:57.754Z,96996.91
2022-12-03T07:08:59.646Z,96992.56
2022-12-03T07:10:01.555Z,96996.91
2022-12-03T07:11:03.474Z,97001.94
2022-12-03T07:12:05.880Z,96996.59
2022-12-03T07:13:07.777Z,96994.41
2022-12-03T07:14:11.739Z,97001.00
2022-12-03T07:15:13.791Z,97003.31
2022-12-03T07:16:15.741Z,96998.16
2022-12-03T07:17:17.786Z,96997.91
2022-12-03T07:18:19.595Z,97003.91
2022-12-03T07:19:21.447Z,97002.28
2022-12-03T07:20:23.275Z,96998.75
2022-12-03T07:21:25.130Z,97007.75
2022-12-03T07:22:27.077Z,97006.41
2022-12-03T07:23:28.984Z,96998.53
2022-12-03T07:24:30.831Z,96995.13
2022-12-03T07:25:32.703Z,96994.53
2022-12-03T07:26:34.603Z,97002.13
2022-12-03T07:27:36.512Z,96996.84
2022-12-03T07:28:38.389Z,96993.59
2022-12-03T07:29:40.608Z,96994.25
2022-12-03T07:30:42.485Z,96993.00
2022-12-03T07:31:44.400Z,96988.31
2022-12-03T07:32:46.364Z,96990.75
2022-12-03T07:33:48.282Z,96992.41
2022-12-03T07:34:50.221Z,96992.69
2022-12-03T07:35:52.210Z,96988.78
2022-12-03T07:36:54.121Z,96988.78
2022-12-03T07:37:56.071Z,96990.91
2022-12-03T07:38:57.892Z,96995.63
2022-12-03T07:39:59.819Z,96992.72
2022-12-03T07:41:01.705Z,96997.59
2022-12-03T07:42:03.732Z,96992.72
2022-12-03T07:43:05.783Z,96994.09
2022-12-03T07:44:12.525Z,96987.34
2022-12-03T07:45:16.654Z,96994.91
2022-12-03T07:46:35.619Z,96988.13
2022-12-03T07:47:37.496Z,96993.44
2022-12-03T07:48:39.432Z,96988.44
2022-12-03T07:49:41.247Z,96987.47
2022-12-03T07:50:43.255Z,96988.00
2022-12-03T07:51:53.994Z,96988.50
2022-12-03T07:52:56.052Z,96989.97
2022-12-03T07:53:57.836Z,96992.41
2022-12-03T07:54:59.632Z,96991.56
2022-12-03T07:56:01.483Z,96989.75
2022-12-03T07:57:03.365Z,96990.78
2022-12-03T07:58:05.140Z,96986.09
2022-12-03T07:59:06.954Z,96980.94
2022-12-03T08:00:08.968Z,96981.31
2022-12-03T08:01:10.921Z,96975.19
2022-12-03T08:02:16.823Z,96976.81
2022-12-03T08:03:23.000Z,96988.28
2022-12-03T08:04:24.784Z,96985.88
2022-12-03T08:05:27.381Z,96980.06
2022-12-03T08:06:29.312Z,96988.13
2022-12-03T08:07:31.972Z,96983.50
2022-12-03T08:08:33.831Z,96983.50
2022-12-03T08:09:35.678Z,96980.78
2022-12-03T08:10:37.504Z,96987.25
2022-12-03T08:11:39.327Z,96983.41
2022-12-03T08:12:41.284Z,96978.25
2022-12-03T08:13:43.307Z,96978.03
2022-12-03T08:14:45.120Z,96974.00
2022-12-03T08:15:46.995Z,96974.50
2022-12-03T08:16:49.132Z,96983.69
2022-12-03T08:17:56.248Z,96974.50
2022-12-03T08:18:58.113Z,96973.09
2022-12-03T08:20:00.006Z,96975.34
2022-12-03T08:21:01.924Z,96976.00
2022-12-03T08:22:10.784Z,96976.00
2022-12-03T08:23:23.959Z,96971.19
2022-12-03T08:24:25.748Z,96975.66
2022-12-03T08:25:29.153Z,96972.78
2022-12-03T08:26:31.093Z,96973.09
2022-12-03T08:27:33.724Z,96974.03
2022-12-03T08:28:36.120Z,96972.78
2022-12-03T08:29:37.968Z,96975.06
2022-12-03T08:30:40.416Z,96976.81
2022-12-03T08:31:42.683Z,96975.72
2022-12-03T08:32:45.067Z,96978.31
2022-12-03T08:33:51.869Z,96980.88
2022-12-03T08:34:53.815Z,96979.25
2022-12-03T08:35:56.073Z,96983.44
2022-12-03T08:37:02.399Z,96977.31
2022-12-03T08:38:11.905Z,96973.09
2022-12-03T08:39:30.848Z,96967.72
2022-12-03T08:40:37.196Z,96969.50
2022-12-03T08:41:57.582Z,96967.28
2022-12-03T08:42:59.456Z,96967.34
2022-12-03T08:44:01.339Z,96965.94
2022-12-03T08:45:18.437Z,96976.22
2022-12-03T08:46:20.516Z,96971.13
2022-12-03T08:47:23.360Z,96968.72
2022-12-03T08:48:29.828Z,96960.84
2022-12-03T08:49:31.883Z,96957.81
2022-12-03T08:50:42.014Z,96961.84
2022-12-03T08:51:44.674Z,96963.16
2022-12-03T08:52:46.556Z,96965.72
2022-12-03T08:53:49.731Z,96961.19
2022-12-03T08:54:55.914Z,96960.72
2022-12-03T08:56:18.287Z,96957.69
2022-12-03T08:57:20.036Z,96958.84
2022-12-03T08:58:30.705Z,96966.28
2022-12-03T08:59:32.607Z,96960.13
2022-12-03T09:00:34.570Z,96968.00
2022-12-03T09:01:43.108Z,96958.13
2022-12-03T09:02:46.591Z,96954.13
2022-12-03T09:03:55.066Z,96969.81
2022-12-03T09:04:57.043Z,96958.38
2022-12-03T09:05:58.987Z,96965.78
2022-12-03T09:07:01.017Z,96975.00
2022-12-03T09:08:02.980Z,96960.19
2022-12-03T09:09:06.909Z,96964.06
2022-12-03T09:10:09.117Z,96963.59
2022-12-03T09:11:10.962Z,96958.94
2022-12-03T09:12:12.920Z,96963.94
2022-12-03T09:13:14.713Z,96965.56
2022-12-03T09:14:18.836Z,96968.63
2022-12-03T09:15:20.944Z,96954.47
2022-12-03T09:16:23.031Z,96953.81
2022-12-03T09:17:24.954Z,96956.72
2022-12-03T09:18:26.807Z,96964.66
2022-12-03T09:19:31.292Z,96957.84
2022-12-03T09:20:33.198Z,96948.66
2022-12-03T09:21:35.153Z,96954.78
2022-12-03T09:22:37.144Z,96951.91
2022-12-03T09:23:38.981Z,96959.97
2022-12-03T09:24:40.872Z,96942.88
2022-12-03T09:25:42.879Z,96949.16
2022-12-03T09:26:44.763Z,96948.50
2022-12-03T09:27:46.648Z,96944.94
2022-12-03T09:28:48.561Z,96950.75
2022-12-03T09:29:50.911Z,96947.03
2022-12-03T09:30:52.878Z,96949.97
2022-12-03T09:31:54.753Z,96946.41
2022-12-03T09:32:56.747Z,96942.06
2022-12-03T09:33:58.622Z,96928.34
2022-12-03T09:35:00.448Z,96934.16
2022-12-03T09:36:02.364Z,96935.94
2022-12-03T09:37:04.269Z,96934.31
2022-12-03T09:38:07.053Z,96935.28
2022-12-03T09:39:09.009Z,96934.00
2022-12-03T09:40:11.278Z,96926.75
2022-12-03T09:41:13.271Z,96927.41
2022-12-03T09:42:15.522Z,96929.81
2022-12-03T09:43:18.251Z,96931.25
2022-12-03T09:44:20.133Z,96931.75
2022-12-03T09:45:23.506Z,96939.00
2022-12-03T09:46:25.543Z,96930.78
2022-12-03T09:47:27.518Z,96926.75
2022-12-03T09:48:29.498Z,96932.41
2022-12-03T09:49:32.319Z,96922.59
2022-12-03T09:50:34.279Z,96913.84
2022-12-03T09:51:36.630Z,96919.34
2022-12-03T09:52:38.454Z,96914.84
2022-12-03T09:53:41.468Z,96916.78
2022-12-03T09:54:47.340Z,96921.13
2022-12-03T09:55:49.803Z,96913.38
2022-12-03T09:56:52.731Z,96908.06
2022-12-03T09:57:55.251Z,96915.16
2022-12-03T09:58:57.302Z,96910.78
2022-12-03T09:59:59.310Z,96913.22
2022-12-03T10:01:01.274Z,96913.72
2022-12-03T10:02:05.192Z,96910.97
2022-12-03T10:03:08.065Z,96905.16
2022-12-03T10:04:10.152Z,96890.97
2022-12-03T10:05:12.401Z,96898.06
2022-12-03T10:06:16.539Z,96894.03
2022-12-03T10:07:18.615Z,96895.47
2022-12-03T10:08:22.403Z,96894.19
2022-12-03T10:09:26.055Z,96894.66
2022-12-03T10:10:27.925Z,96885.47
2022-12-03T10:11:30.976Z,96889.47
2022-12-03T10:12:32.866Z,96885.16
2022-12-03T10:13:37.533Z,96886.75
2022-12-03T10:14:39.685Z,96887.41
2022-12-03T10:15:41.627Z,96890.63
2022-12-03T10:16:44.228Z,96883.06
2022-12-03T10:17:46.875Z,96887.09
2022-12-03T10:18:53.540Z,96879.34
2022-12-03T10:19:55.536Z,96879.00
2022-12-03T10:20:58.189Z,96878.84
2022-12-03T10:21:59.998Z,96882.88
2022-12-03T10:23:01.853Z,96875.78
2022-12-03T10:24:23.601Z,96874.16
2022-12-03T10:25:25.424Z,96872.53
2022-12-03T10:26:39.188Z,96867.03
2022-12-03T10:27:41.632Z,96864.75
2022-12-03T10:28:44.371Z,96866.53
2022-12-03T10:29:54.211Z,96865.09
2022-12-03T10:30:56.896Z,96859.28
2022-12-03T10:32:00.143Z,96861.88
2022-12-03T10:33:15.851Z,96856.34
2022-12-03T10:34:46.746Z,96852.03
2022-12-03T10:35:48.602Z,96865.09
2022-12-03T10:37:08.716Z,96864.94
2022-12-03T10:38:23.155Z,96869.59
2022-12-03T10:39:25.023Z,96862.50
2022-12-03T10:40:37.335Z,96864.75
2022-12-03T10:41:40.127Z,96868.47
2022-12-03T10:42:41.956Z,96858.28
2022-12-03T10:43:43.835Z,96852.16
2022-12-03T10:44:45.972Z,96853.13
2022-12-03T10:45:48.963Z,96847.94
2022-12-03T10:47:26.170Z,96851.53
2022-12-03T10:48:28.116Z,96848.94
2022-12-03T10:49:30.000Z,96847.94
2022-12-03T10:50:32.263Z,96844.88
2022-12-03T10:51:35.382Z,96848.75
2022-12-03T10:52:37.311Z,96848.28
2022-12-03T10:53:40.841Z,96849.06
2022-12-03T10:54:42.758Z,96846.34
2022-12-03T10:55:45.789Z,96848.91
2022-12-03T10:56:48.645Z,96847.97
2022-12-03T10:57:50.551Z,96851.81
2022-12-03T10:58:52.891Z,96850.50
2022-12-03T10:59:54.823Z,96848.38
2022-12-03T11:00:57.753Z,96845.00
2022-12-03T11:02:01.381Z,96842.25
2022-12-03T11:03:03.370Z,96844.84
2022-12-03T11:04:05.718Z,96844.69
2022-12-03T11:05:07.968Z,96839.66
2022-12-03T11:06:14.127Z,96840.31
2022-12-03T11:07:17.911Z,96834.34
2022-12-03T11:08:21.453Z,96837.09
2022-12-03T11:09:29.850Z,96842.91
2022-12-03T11:10:31.665Z,96832.41
2022-12-03T11:11:33.617Z,96834.34
2022-12-03T11:12:37.205Z,96829.16
2022-12-03T11:13:39.024Z,96827.53
2022-12-03T11:14:54.428Z,96832.72
2022-12-03T11:15:57.042Z,96833.69
2022-12-03T11:16:58.916Z,96831.13
2022-12-03T11:18:01.002Z,96828.34
2022-12-03T11:19:03.650Z,96825.94
2022-12-03T11:20:06.415Z,96817.22
2022-12-03T11:21:14.734Z,96814.31
2022-12-03T11:22:17.846Z,96810.88
2022-12-03T11:23:39.682Z,96817.69
2022-12-03T11:24:41.502Z,96816.88
2022-12-03T11:25:47.882Z,96818.47
2022-12-03T11:26:52.772Z,96802.97
2022-12-03T11:28:13.335Z,96804.59
2022-12-03T11:29:15.366Z,96807.66
2022-12-03T11:30:37.077Z,96810.88
2022-12-03T11:31:48.676Z,96803.47
2022-12-03T11:33:00.944Z,96797.69
2022-12-03T11:34:21.195Z,96802.06
2022-12-03T11:35:25.750Z,96801.56
2022-12-03T11:36:47.760Z,96798.19
2022-12-03T11:37:49.410Z,96798.34
2022-12-03T11:38:53.925Z,96799.50
2022-12-03T11:39:59.782Z,96800.63
2022-12-03T11:41:12.059Z,96801.44
2022-12-03T11:42:26.012Z,96798.03
2022-12-03T11:43:51.097Z,96806.59
2022-12-03T11:45:11.522Z,96793.19
2022-12-03T11:46:13.540Z,96795.25
2022-12-03T11:47:16.262Z,96794.28
2022-12-03T11:48:18.996Z,96798.47
2022-12-03T11:49:20.749Z,96788.94
2022-12-03T11:50:24.355Z,96788.78
2022-12-03T11:51:27.694Z,96791.19
2022-12-03T11:52:39.422Z,96789.25
2022-12-03T11:53:41.622Z,96786.81
2022-12-03T11:54:43.764Z,96789.41
2022-12-03T11:55:48.960Z,96799.75
2022-12-03T11:56:50.924Z,96792.63
2022-12-03T11:57:57.606Z,96793.09
2022-12-03T11:59:02.986Z,96787.94
2022-12-03T12:00:17.485Z,96790.69
2022-12-03T12:01:35.469Z,96790.16
2022-12-03T12:02:40.685Z,96791.97
2022-12-03T12:03:44.720Z,96795.19
2022-12-03T12:04:49.643Z,96793.22
2022-12-03T12:06:00.640Z,96793.41
2022-12-03T12:07:02.699Z,96791.00
2022-12-03T12:08:04.732Z,96797.94
2022-12-03T12:09:06.649Z,96784.19
2022-12-03T12:10:08.579Z,96789.06
2022-12-03T12:11:36.792Z,96788.69
2022-12-03T12:12:39.528Z,96781.56
2022-12-03T12:13:41.412Z,96785.00
2022-12-03T12:14:44.344Z,96777.88
2022-12-03T12:15:46.221Z,96785.09
2022-12-03T12:16:52.378Z,96785.09
2022-12-03T12:17:54.218Z,96777.34
2022-12-03T12:18:56.412Z,96782.53
2022-12-03T12:20:14.333Z,96782.53
2022-12-03T12:21:34.942Z,96780.25
2022-12-03T12:22:36.754Z,96781.41
2022-12-03T12:23:38.626Z,96776.75
2022-12-03T12:24:41.087Z,96776.13
2022-12-03T12:25:43.007Z,96778.72
2022-12-03T12:26:50.571Z,96782.09
2022-12-03T12:27:54.120Z,96785.66
2022-12-03T12:28:56.058Z,96779.84
2022-12-03T12:29:59.589Z,96787.25
2022-12-03T12:31:01.563Z,96792.13